createdAt,value
2023-02-18T00:01:40.694Z,9.29
2023-02-18T00:04:07.371Z,9.32
2023-02-18T00:06:36.211Z,9.33
2023-02-18T00:09:04.768Z,9.36
2023-02-18T00:11:34.613Z,9.36
2023-02-18T00:14:03.771Z,9.37
2023-02-18T00:16:36.935Z,9.40
2023-02-18T00:19:06.039Z,9.41
2023-02-18T00:21:34.369Z,9.43
2023-02-18T00:24:01.360Z,9.48
2023-02-18T00:26:28.207Z,9.51
2023-02-18T00:28:54.749Z,9.52
2023-02-18T00:31:31.451Z,9.55
2023-02-18T00:33:59.688Z,9.55
2023-02-18T00:36:26.750Z,9.55
2023-02-18T00:39:00.240Z,9.57
2023-02-18T00:41:29.514Z,9.57
2023-02-18T00:43:56.048Z,9.57
2023-02-18T00:46:24.702Z,9.58
2023-02-18T00:48:51.235Z,9.57
2023-02-18T00:51:18.010Z,9.57
2023-02-18T00:53:51.088Z,9.57
2023-02-18T00:56:18.084Z,9.56
2023-02-18T00:58:44.614Z,9.55
2023-02-18T01:01:13.526Z,9.56
2023-02-18T01:03:41.355Z,9.55
2023-02-18T01:06:11.235Z,9.54
2023-02-18T01:08:40.902Z,9.55
2023-02-18T01:11:09.483Z,9.54
2023-02-18T01:13:36.783Z,9.55
2023-02-18T01:16:03.573Z,9.55
2023-02-18T01:18:30.548Z,9.55
2023-02-18T01:20:57.564Z,9.54
2023-02-18T01:23:24.323Z,9.56
2023-02-18T01:25:51.374Z,9.54
2023-02-18T01:28:19.133Z,9.54
2023-02-18T01:30:47.570Z,9.54
2023-02-18T01:33:22.157Z,9.55
2023-02-18T01:35:50.732Z,9.55
2023-02-18T01:38:17.271Z,9.52
2023-02-18T01:40:48.204Z,9.53
2023-02-18T01:43:15.549Z,9.52
2023-02-18T01:45:51.242Z,9.53
2023-02-18T01:48:28.101Z,9.54
2023-02-18T01:51:02.165Z,9.55
2023-02-18T01:53:35.839Z,9.54
2023-02-18T01:56:07.240Z,9.56
2023-02-18T01:58:34.190Z,9.54
2023-02-18T02:09:14.720Z,9.57
2023-02-18T02:11:59.782Z,9.56
2023-02-18T02:15:03.847Z,9.55
2023-02-18T02:18:06.280Z,9.54
2023-02-18T02:20:57.693Z,9.53
2023-02-18T02:24:10.684Z,9.51
2023-02-18T02:27:16.457Z,9.50
2023-02-18T02:29:51.628Z,9.49
2023-02-18T02:32:35.943Z,9.46
2023-02-18T02:35:23.980Z,9.45
2023-02-18T02:37:57.724Z,9.45
2023-02-18T02:40:42.312Z,9.45
2023-02-18T02:43:16.307Z,9.44
2023-02-18T02:45:58.669Z,9.44
2023-02-18T02:49:04.090Z,9.43
2023-02-18T02:51:38.021Z,9.43
2023-02-18T02:54:24.145Z,9.42
2023-02-18T02:56:50.897Z,9.41
2023-02-18T02:59:24.630Z,9.39
2023-02-18T03:02:09.817Z,9.37
2023-02-18T03:04:46.296Z,9.36
2023-02-18T03:07:34.943Z,9.36
2023-02-18T03:10:16.654Z,9.35
2023-02-18T03:12:47.560Z,9.35
2023-02-18T03:15:19.937Z,9.33
2023-02-18T03:17:59.511Z,9.34
2023-02-18T03:20:31.699Z,9.35
2023-02-18T03:23:03.368Z,9.35
2023-02-18T03:25:33.950Z,9.36
2023-02-18T03:28:07.138Z,9.35
2023-02-18T03:30:42.129Z,9.37
2023-02-18T03:33:14.362Z,9.37
2023-02-18T03:35:44.315Z,9.38
2023-02-18T03:38:20.581Z,9.40
2023-02-18T03:40:51.173Z,9.42
2023-02-18T03:43:18.060Z,9.42
2023-02-18T03:45:44.900Z,9.44
2023-02-18T03:48:11.414Z,9.46
2023-02-18T03:50:37.915Z,9.45
2023-02-18T03:53:08.883Z,9.48
2023-02-18T03:55:35.465Z,9.49
2023-02-18T03:58:01.962Z,9.52
2023-02-18T04:00:30.274Z,9.52
2023-02-18T04:03:01.155Z,9.55
2023-02-18T04:05:28.304Z,9.56
2023-02-18T04:07:55.051Z,9.57
2023-02-18T04:10:22.934Z,9.57
2023-02-18T04:12:51.852Z,9.59
2023-02-18T04:15:18.593Z,9.62
2023-02-18T04:17:45.137Z,9.62
2023-02-18T04:20:12.123Z,9.64
2023-02-18T04:22:40.530Z,9.63
2023-02-18T04:25:09.252Z,9.64
2023-02-18T04:27:35.747Z,9.66
2023-02-18T04:30:05.593Z,9.65
2023-02-18T04:32:32.157Z,9.65
2023-02-18T04:34:58.699Z,9.66
2023-02-18T04:37:31.992Z,9.64
2023-02-18T04:39:58.553Z,9.66
2023-02-18T04:42:25.119Z,9.66
2023-02-18T04:44:51.786Z,9.67
2023-02-18T04:47:24.536Z,9.66
2023-02-18T04:49:51.064Z,9.67
2023-02-18T04:52:26.803Z,9.66
2023-02-18T04:54:53.325Z,9.68
2023-02-18T04:57:19.790Z,9.69
2023-02-18T04:59:48.508Z,9.70
2023-02-18T05:02:15.405Z,9.69
2023-02-18T05:04:41.904Z,9.68
2023-02-18T05:07:10.206Z,9.68
2023-02-18T05:09:36.731Z,9.68
2023-02-18T05:12:03.429Z,9.68
2023-02-18T05:14:36.513Z,9.69
2023-02-18T05:17:03.300Z,9.68
2023-02-18T05:19:30.124Z,9.67
2023-02-18T05:22:04.405Z,9.68
2023-02-18T05:24:31.135Z,9.68
2023-02-18T05:26:57.613Z,9.69
2023-02-18T05:29:26.368Z,9.67
2023-02-18T05:31:52.981Z,9.67
2023-02-18T05:34:21.715Z,9.67
2023-02-18T05:36:48.512Z,9.66
2023-02-18T05:39:15.000Z,9.65
2023-02-18T05:41:41.495Z,9.65
2023-02-18T05:44:28.309Z,9.66
2023-02-18T05:46:55.053Z,9.62
2023-02-18T05:49:24.067Z,9.62
2023-02-18T05:51:52.341Z,9.62
2023-02-18T05:54:19.054Z,9.60
2023-02-18T05:56:45.540Z,9.60
2023-02-18T05:59:12.401Z,9.61
2023-02-18T06:01:39.181Z,9.61
2023-02-18T06:04:05.640Z,9.61
2023-02-18T06:06:32.756Z,9.60
2023-02-18T06:08:59.228Z,9.62
2023-02-18T06:11:30.084Z,9.63
2023-02-18T06:13:56.723Z,9.64
2023-02-18T06:16:23.345Z,9.63
2023-02-18T06:18:50.088Z,9.62
2023-02-18T06:21:20.710Z,9.61
2023-02-18T06:23:47.626Z,9.61
2023-02-18T06:26:14.128Z,9.59
2023-02-18T06:28:40.661Z,9.59
2023-02-18T06:31:07.374Z,9.59
2023-02-18T06:33:37.310Z,9.60
2023-02-18T06:36:11.760Z,9.60
2023-02-18T06:38:41.227Z,9.60
2023-02-18T06:41:07.970Z,9.60
2023-02-18T06:43:37.403Z,9.60
2023-02-18T06:46:04.828Z,9.59
2023-02-18T06:48:32.057Z,9.58
2023-02-18T06:50:58.852Z,9.57
2023-02-18T06:53:27.752Z,9.57
2023-02-18T06:55:54.365Z,9.59
2023-02-18T06:58:21.113Z,9.60
2023-02-18T07:00:47.650Z,9.60
2023-02-18T07:03:15.062Z,9.61
2023-02-18T07:05:42.606Z,9.63
2023-02-18T07:08:09.693Z,9.66
2023-02-18T07:10:36.643Z,9.67
2023-02-18T07:13:03.745Z,9.69
2023-02-18T07:15:30.240Z,9.70
2023-02-18T07:17:56.760Z,9.71
2023-02-18T07:20:25.450Z,9.75
2023-02-18T07:22:52.100Z,9.77
2023-02-18T07:25:18.809Z,9.79
2023-02-18T07:27:45.436Z,9.82
2023-02-18T07:30:14.603Z,9.85
2023-02-18T07:32:41.140Z,9.88
2023-02-18T07:35:08.221Z,9.91
2023-02-18T07:37:34.701Z,9.94
2023-02-18T07:40:01.200Z,9.97
2023-02-18T07:42:29.495Z,10.00
2023-02-18T07:44:55.985Z,10.03
2023-02-18T07:47:22.928Z,10.08
2023-02-18T07:49:51.284Z,10.14
2023-02-18T07:52:17.913Z,10.19
2023-02-18T07:54:44.449Z,10.20
2023-02-18T07:57:11.146Z,10.20
2023-02-18T07:59:37.619Z,10.24
2023-02-18T08:02:05.673Z,10.24
2023-02-18T08:04:32.373Z,10.26
2023-02-18T08:06:58.872Z,10.25
2023-02-18T08:09:25.414Z,10.27
2023-02-18T08:11:53.716Z,10.30
2023-02-18T08:14:20.406Z,10.33
2023-02-18T08:16:46.936Z,10.37
2023-02-18T08:19:15.219Z,10.39
2023-02-18T08:21:41.762Z,10.45
2023-02-18T08:24:08.366Z,10.49
2023-02-18T08:26:59.132Z,10.55
2023-02-18T08:29:27.111Z,10.60
2023-02-18T08:31:55.266Z,10.67
2023-02-18T08:34:21.955Z,10.72
2023-02-18T08:36:48.472Z,10.75
2023-02-18T08:39:15.014Z,10.77
2023-02-18T08:41:41.542Z,10.79
2023-02-18T08:44:08.307Z,10.83
2023-02-18T08:46:35.909Z,10.88
2023-02-18T08:49:04.402Z,10.92
2023-02-18T08:51:31.581Z,10.97
2023-02-18T08:54:00.292Z,10.98
2023-02-18T08:56:32.626Z,11.04
2023-02-18T08:58:59.208Z,11.10
2023-02-18T09:01:26.009Z,11.14
2023-02-18T09:03:52.573Z,11.18
2023-02-18T09:06:19.036Z,11.25
2023-02-18T09:08:52.200Z,11.30
2023-02-18T09:11:19.816Z,11.34
2023-02-18T09:13:47.105Z,11.41
2023-02-18T09:16:20.118Z,11.44
2023-02-18T09:18:49.899Z,11.46
2023-02-18T09:21:20.679Z,11.48
2023-02-18T09:23:49.514Z,11.51
2023-02-18T09:26:17.841Z,11.57
2023-02-18T09:28:44.528Z,11.64
2023-02-18T09:31:18.682Z,11.72
2023-02-18T09:33:48.144Z,11.75
2023-02-18T09:36:17.197Z,11.77
2023-02-18T09:38:44.232Z,11.82
2023-02-18T09:41:23.792Z,11.83
2023-02-18T09:43:54.242Z,11.89
2023-02-18T09:46:26.211Z,11.97
2023-02-18T09:48:53.137Z,11.98
2023-02-18T09:51:20.329Z,12.04
2023-02-18T09:53:46.994Z,12.11
2023-02-18T09:56:25.560Z,12.14
2023-02-18T09:58:52.969Z,12.19
2023-02-18T10:01:35.535Z,12.23
2023-02-18T10:04:10.530Z,12.36
2023-02-18T10:06:38.032Z,12.48
2023-02-18T10:09:14.408Z,12.64
2023-02-18T10:11:44.649Z,12.81
2023-02-18T10:14:13.788Z,12.90
2023-02-18T10:16:40.903Z,12.82
2023-02-18T10:19:28.732Z,12.82
2023-02-18T10:21:56.195Z,12.83
2023-02-18T10:24:30.722Z,12.88
2023-02-18T10:26:58.830Z,12.92
2023-02-18T10:29:25.837Z,12.82
2023-02-18T10:32:21.484Z,12.81
2023-02-18T10:34:53.703Z,12.77
2023-02-18T10:37:29.247Z,12.67
2023-02-18T10:40:14.295Z,12.69
2023-02-18T10:43:07.899Z,12.70
2023-02-18T10:45:51.207Z,12.62
2023-02-18T10:48:38.216Z,12.57
2023-02-18T10:51:19.649Z,12.55
2023-02-18T10:53:48.953Z,12.53
2023-02-18T10:56:43.661Z,12.49
2023-02-18T10:59:12.565Z,12.50
2023-02-18T11:01:43.358Z,12.42
2023-02-18T11:04:23.459Z,12.36
2023-02-18T11:06:52.436Z,12.37
2023-02-18T11:09:33.343Z,12.35
2023-02-18T11:12:09.069Z,12.38
2023-02-18T11:14:39.390Z,12.48
2023-02-18T11:17:27.990Z,12.67
2023-02-18T11:19:59.617Z,12.77
2023-02-18T11:22:30.612Z,12.93
2023-02-18T11:25:00.081Z,12.99
2023-02-18T11:27:29.572Z,13.16
2023-02-18T11:30:34.571Z,13.31
2023-02-18T11:33:08.501Z,13.41
2023-02-18T11:35:35.544Z,13.45
2023-02-18T11:38:04.865Z,13.52
2023-02-18T11:40:33.889Z,13.70
2023-02-18T11:43:16.299Z,13.98
2023-02-18T11:45:44.829Z,14.01
2023-02-18T11:48:24.166Z,14.25
2023-02-18T11:50:54.312Z,14.55
2023-02-18T11:53:36.945Z,14.68
2023-02-18T11:56:08.186Z,14.64
2023-02-18T11:58:44.089Z,14.70
2023-02-18T12:01:49.838Z,14.79
2023-02-18T12:04:28.996Z,14.80
2023-02-18T12:07:23.153Z,14.79
2023-02-18T12:09:54.935Z,14.83
2023-02-18T12:12:36.263Z,15.02
2023-02-18T12:15:05.185Z,15.09
2023-02-18T12:17:51.267Z,15.28
2023-02-18T12:20:39.305Z,15.26
2023-02-18T12:23:47.306Z,15.26
2023-02-18T12:26:36.039Z,15.46
2023-02-18T12:29:12.201Z,15.22
2023-02-18T12:31:47.754Z,15.08
2023-02-18T12:34:40.757Z,14.94
2023-02-18T12:37:34.809Z,14.69
2023-02-18T12:40:12.178Z,14.81
2023-02-18T12:42:58.911Z,14.91
2023-02-18T12:45:38.579Z,14.98
2023-02-18T12:48:17.243Z,14.76
2023-02-18T12:50:47.912Z,14.96
2023-02-18T12:53:50.257Z,14.89
2023-02-18T12:56:39.582Z,14.85
2023-02-18T12:59:42.638Z,14.66
2023-02-18T13:02:46.659Z,14.56
2023-02-18T13:05:29.917Z,14.65
2023-02-18T13:08:35.685Z,14.63
2023-02-18T13:11:13.070Z,14.47
2023-02-18T13:14:02.980Z,14.57
2023-02-18T13:16:32.765Z,14.51
2023-02-18T13:19:21.685Z,14.55
2023-02-18T13:21:50.902Z,14.54
2023-02-18T13:24:29.823Z,14.49
2023-02-18T13:27:07.105Z,14.59
2023-02-18T13:29:48.302Z,14.56
2023-02-18T13:32:28.454Z,14.32
2023-02-18T13:35:27.889Z,14.42
2023-02-18T13:38:20.387Z,14.74
2023-02-18T13:40:49.476Z,14.83
2023-02-18T13:43:23.793Z,14.83
2023-02-18T13:46:11.566Z,14.86
2023-02-18T13:48:44.995Z,15.04
2023-02-18T13:51:14.382Z,14.84
2023-02-18T13:53:45.133Z,14.92
2023-02-18T13:56:22.134Z,15.01
2023-02-18T13:59:17.879Z,15.13
2023-02-18T14:01:49.073Z,14.94
2023-02-18T14:04:42.644Z,14.77
2023-02-18T14:07:35.257Z,14.80
2023-02-18T14:10:09.031Z,14.80
2023-02-18T14:12:52.627Z,14.82
2023-02-18T14:15:19.290Z,14.77
2023-02-18T14:18:09.461Z,14.76
2023-02-18T14:20:38.884Z,14.65
2023-02-18T14:23:33.032Z,14.69
2023-02-18T14:26:21.623Z,14.67
2023-02-18T14:28:48.194Z,14.61
2023-02-18T14:31:36.325Z,14.60
2023-02-18T14:34:24.295Z,14.57
2023-02-18T14:37:46.173Z,14.46
2023-02-18T14:40:39.569Z,14.40
2023-02-18T14:43:43.592Z,14.35
2023-02-18T14:46:17.889Z,14.34
2023-02-18T14:48:59.479Z,14.38
2023-02-18T14:51:29.657Z,14.37
2023-02-18T14:53:56.218Z,14.41
2023-02-18T14:56:25.504Z,14.37
2023-02-18T14:59:00.572Z,14.34
2023-02-18T15:01:33.131Z,14.33
2023-02-18T15:04:03.394Z,14.30
2023-02-18T15:06:31.995Z,14.22
2023-02-18T15:09:14.165Z,14.15
2023-02-18T15:11:47.754Z,14.10
2023-02-18T15:14:19.505Z,14.08
2023-02-18T15:16:48.382Z,14.04
2023-02-18T15:19:22.171Z,13.97
2023-02-18T15:21:51.013Z,13.92
2023-02-18T15:24:38.678Z,13.86
2023-02-18T15:27:21.594Z,13.80
2023-02-18T15:30:31.168Z,13.75
2023-02-18T15:33:00.141Z,13.68
2023-02-18T15:35:30.902Z,13.62
2023-02-18T15:38:07.032Z,13.56
2023-02-18T15:40:37.506Z,13.46
2023-02-18T15:43:06.283Z,13.37
2023-02-18T15:45:41.618Z,13.27
2023-02-18T15:48:22.353Z,13.21
2023-02-18T15:50:56.902Z,13.15
2023-02-18T15:53:26.123Z,13.07
2023-02-18T15:55:54.522Z,13.01
2023-02-18T15:58:34.605Z,12.96
2023-02-18T16:01:07.777Z,12.90
2023-02-18T16:03:46.549Z,12.81
2023-02-18T16:06:24.169Z,12.76
2023-02-18T16:09:03.761Z,12.68
2023-02-18T16:11:35.104Z,12.64
2023-02-18T16:14:02.029Z,12.56
2023-02-18T16:16:32.307Z,12.52
2023-02-18T16:18:59.769Z,12.47
2023-02-18T16:21:34.246Z,12.39
2023-02-18T16:24:02.680Z,12.31
2023-02-18T16:26:43.677Z,12.27
2023-02-18T16:29:15.725Z,12.19
2023-02-18T16:31:43.321Z,12.10
2023-02-18T16:34:10.017Z,12.04
2023-02-18T16:36:36.521Z,11.99
2023-02-18T16:39:04.261Z,11.93
2023-02-18T16:41:31.071Z,11.85
2023-02-18T16:43:57.725Z,11.77
2023-02-18T16:46:25.215Z,11.68
2023-02-18T16:48:56.645Z,11.65
2023-02-18T16:51:31.563Z,11.58
2023-02-18T16:54:00.045Z,11.52
2023-02-18T16:56:30.919Z,11.47
2023-02-18T16:59:00.992Z,11.42
2023-02-18T17:01:43.262Z,11.38
2023-02-18T17:04:15.774Z,11.31
2023-02-18T17:06:47.404Z,11.29
2023-02-18T17:09:20.714Z,11.22
2023-02-18T17:11:51.345Z,11.12
2023-02-18T17:14:23.101Z,11.07
2023-02-18T17:16:53.037Z,10.99
2023-02-18T17:19:23.466Z,10.94
2023-02-18T17:21:53.105Z,10.84
2023-02-18T17:24:21.455Z,10.81
2023-02-18T17:26:47.940Z,10.73
2023-02-18T17:29:14.450Z,10.75
2023-02-18T17:31:48.996Z,10.72
2023-02-18T17:34:24.565Z,10.68
2023-02-18T17:36:53.332Z,10.61
2023-02-18T17:39:20.820Z,10.58
2023-02-18T17:41:47.462Z,10.68
2023-02-18T17:44:19.493Z,10.68
2023-02-18T17:46:46.528Z,10.68
2023-02-18T17:49:13.356Z,10.72
2023-02-18T17:51:42.840Z,10.81
2023-02-18T17:54:14.486Z,10.86
2023-02-18T17:56:41.786Z,10.84
2023-02-18T17:59:08.485Z,10.88
2023-02-18T18:01:35.472Z,10.96
2023-02-18T18:04:02.367Z,10.96
2023-02-18T18:06:31.200Z,10.96
2023-02-18T18:09:03.479Z,10.99
2023-02-18T18:11:34.664Z,11.01
2023-02-18T18:14:01.263Z,11.05
2023-02-18T18:16:27.876Z,11.05
2023-02-18T18:18:56.120Z,11.05
2023-02-18T18:21:34.563Z,11.04
2023-02-18T18:24:01.540Z,11.04
2023-02-18T18:26:29.077Z,11.07
2023-02-18T18:28:55.735Z,11.05
2023-02-18T18:31:22.821Z,11.04
2023-02-18T18:33:52.962Z,11.02
2023-02-18T18:36:20.990Z,11.04
2023-02-18T18:38:49.330Z,11.03
2023-02-18T18:41:21.306Z,11.00
2023-02-18T18:43:48.000Z,11.02
2023-02-18T18:46:14.713Z,11.03
2023-02-18T18:48:41.562Z,11.04
2023-02-18T18:51:17.691Z,11.02
2023-02-18T18:53:44.543Z,10.98
2023-02-18T18:56:11.943Z,10.97
2023-02-18T18:58:38.702Z,10.95
2023-02-18T19:01:12.433Z,10.94
2023-02-18T19:03:40.120Z,10.90
2023-02-18T19:06:12.101Z,10.89
2023-02-18T19:08:38.641Z,10.91
2023-02-18T19:11:07.916Z,10.93
2023-02-18T19:13:36.209Z,10.94
2023-02-18T19:16:19.981Z,10.90
2023-02-18T19:18:47.440Z,10.87
2023-02-18T19:21:14.439Z,10.89
2023-02-18T19:23:46.379Z,10.88
2023-02-18T19:26:15.075Z,10.90
2023-02-18T19:28:53.988Z,10.92
2023-02-18T19:31:24.487Z,10.90
2023-02-18T19:33:51.854Z,10.89
2023-02-18T19:36:18.935Z,10.93
2023-02-18T19:38:46.629Z,10.93
2023-02-18T19:41:15.221Z,10.96
2023-02-18T19:43:44.564Z,10.97
2023-02-18T19:46:13.412Z,10.97
2023-02-18T19:48:40.363Z,10.98
2023-02-18T19:51:10.325Z,10.98
2023-02-18T19:53:37.210Z,10.97
2023-02-18T19:56:07.350Z,10.98
2023-02-18T19:58:38.590Z,10.99
2023-02-18T20:01:14.648Z,11.03
2023-02-18T20:03:50.440Z,11.05
2023-02-18T20:06:20.818Z,11.05
2023-02-18T20:08:49.634Z,11.09
2023-02-18T20:11:16.781Z,11.10
2023-02-18T20:13:43.319Z,11.10
2023-02-18T20:16:10.727Z,11.09
2023-02-18T20:18:37.355Z,11.10
2023-02-18T20:21:04.199Z,11.12
2023-02-18T20:23:30.685Z,11.11
2023-02-18T20:25:59.185Z,11.13
2023-02-18T20:28:25.815Z,11.15
2023-02-18T20:31:07.375Z,11.13
2023-02-18T20:33:37.753Z,11.15
2023-02-18T20:36:07.060Z,11.15
2023-02-18T20:38:36.322Z,11.16
2023-02-18T20:41:07.808Z,11.14
2023-02-18T20:43:34.504Z,11.14
2023-02-18T20:46:10.265Z,11.14
2023-02-18T20:48:37.224Z,11.14
2023-02-18T20:51:13.669Z,11.13
2023-02-18T20:53:41.228Z,11.13
2023-02-18T20:56:10.366Z,11.12
2023-02-18T20:58:37.367Z,11.11
2023-02-18T21:01:09.660Z,11.12
2023-02-18T21:03:37.410Z,11.11
2023-02-18T21:06:07.748Z,11.12
2023-02-18T21:08:35.582Z,11.13
2023-02-18T21:11:05.073Z,11.15
2023-02-18T21:13:32.550Z,11.16
2023-02-18T21:15:59.167Z,11.17
2023-02-18T21:18:31.723Z,11.18
2023-02-18T21:21:00.900Z,11.17
2023-02-18T21:23:27.375Z,11.16
2023-02-18T21:25:53.880Z,11.18
2023-02-18T21:28:22.135Z,11.18
2023-02-18T21:30:48.584Z,11.18
2023-02-18T21:33:15.445Z,11.16
2023-02-18T21:35:43.771Z,11.17
2023-02-18T21:38:10.399Z,11.16
2023-02-18T21:40:37.038Z,11.16
2023-02-18T21:43:05.318Z,11.14
2023-02-18T21:45:31.941Z,11.15
2023-02-18T21:48:18.607Z,11.14
2023-02-18T21:50:45.116Z,11.14
2023-02-18T21:53:11.922Z,11.13
2023-02-18T21:55:38.574Z,11.12
2023-02-18T21:58:05.094Z,11.13
2023-02-18T22:00:32.084Z,11.14
2023-02-18T22:03:05.611Z,11.13
2023-02-18T22:05:32.101Z,11.12
2023-02-18T22:07:58.610Z,11.12
2023-02-18T22:10:25.256Z,11.12
2023-02-18T22:12:51.755Z,11.10
2023-02-18T22:15:18.269Z,11.10
2023-02-18T22:17:46.588Z,11.09
2023-02-18T22:20:13.145Z,11.08
2023-02-18T22:22:39.705Z,11.06
2023-02-18T22:25:10.176Z,11.07
2023-02-18T22:27:36.958Z,11.07
2023-02-18T22:30:04.164Z,11.07
2023-02-18T22:32:31.977Z,11.07
2023-02-18T22:34:58.666Z,11.08
2023-02-18T22:37:25.519Z,11.06
2023-02-18T22:39:59.759Z,11.06
2023-02-18T22:42:26.228Z,11.06
2023-02-18T22:44:53.676Z,11.06
2023-02-18T22:47:22.385Z,11.05
2023-02-18T22:49:48.842Z,11.04
2023-02-18T22:52:15.600Z,11.03
2023-02-18T22:54:55.074Z,11.02
2023-02-18T22:57:21.829Z,11.01
2023-02-18T22:59:48.393Z,11.01
2023-02-18T23:02:14.865Z,11.04
2023-02-18T23:04:41.937Z,11.03
2023-02-18T23:07:08.725Z,11.01
2023-02-18T23:09:42.975Z,10.98
2023-02-18T23:12:09.480Z,11.00
2023-02-18T23:14:35.961Z,11.00
2023-02-18T23:17:18.680Z,10.99
2023-02-18T23:19:50.873Z,10.98
2023-02-18T23:22:21.774Z,10.98
2023-02-18T23:24:49.559Z,10.96
2023-02-18T23:27:16.571Z,10.95
2023-02-18T23:29:43.229Z,10.95
2023-02-18T23:32:10.338Z,10.95
2023-02-18T23:34:38.211Z,10.95
2023-02-18T23:37:05.006Z,10.93
2023-02-18T23:39:31.790Z,10.90
2023-02-18T23:42:02.049Z,10.88
2023-02-18T23:44:30.513Z,10.86
2023-02-18T23:46:57.301Z,10.80
2023-02-18T23:49:26.374Z,10.74
2023-02-18T23:51:55.787Z,10.68
2023-02-18T23:54:22.617Z,10.60
2023-02-18T23:56:49.367Z,10.51
2023-02-18T23:59:17.755Z,10.44
